This is the latest recevied weather packets stored in our database for station/object JE7UPL-13. If no packets are shown the sender has not sent any weather packets the latest 10 day(s).
| Time | Temp. | Humidity | Pressure | Rain* | Wind** | Luminosity | Snow |
|---|---|---|---|---|---|---|---|
| 1777908605 | 7.78° C | 85% | 1003.5 hPa | 0 mm | - | - | - |
| 1777907705 | 7.78° C | 86% | 1003.3 hPa | 0 mm | - | - | - |
| 1777906810 | 7.78° C | 87% | 1002.9 hPa | 0 mm | - | - | - |
| 1777905905 | 7.78° C | 87% | 1002.4 hPa | 0 mm | - | - | - |
| 1777905006 | 7.78° C | 85% | 1002 hPa | 0 mm | - | - | - |
| 1777904106 | 7.78° C | 86% | 1001.4 hPa | 0 mm | - | - | - |
| 1777903206 | 7.78° C | 83% | 1001.3 hPa | 0 mm | - | - | - |
| 1777902306 | 8.33° C | 85% | 1000.6 hPa | 0 mm | - | - | - |
| 1777901405 | 8.33° C | 85% | 999.9 hPa | 0 mm | - | - | - |
| 1777900506 | 8.89° C | 82% | 999.3 hPa | 0 mm | - | - | - |
| 1777899606 | 9.44° C | 82% | 998.6 hPa | 0 mm | - | - | - |
| 1777898706 | 9.44° C | 86% | 997.8 hPa | 0 mm | - | - | - |
| 1777897806 | 9.44° C | 86% | 997.3 hPa | 0 mm | - | - | - |
| 1777896905 | 10° C | 85% | 996.7 hPa | 0 mm | - | - | - |
| 1777896006 | 10° C | 82% | 996.3 hPa | 0 mm | - | - | - |
| 1777895106 | 10° C | 84% | 996.3 hPa | 0 mm | - | - | - |
| 1777894206 | 10.56° C | 85% | 995.8 hPa | 0 mm | - | - | - |
| 1777893306 | 10.56° C | 87% | 994.9 hPa | 0 mm | - | - | - |
| 1777892406 | 11.11° C | 80% | 993.3 hPa | 0 mm | - | - | - |
| 1777891505 | 12.78° C | 69% | 992.2 hPa | 0 mm | - | - | - |
| 1777890606 | 12.78° C | 69% | 992.4 hPa | 0 mm | - | - | - |
| 1777889705 | 13.33° C | 67% | 992.3 hPa | 0 mm | - | - | - |
| 1777888806 | 13.89° C | 65% | 991.9 hPa | 0 mm | - | - | - |
| 1777887905 | 14.44° C | 69% | 991.2 hPa | 0 mm | - | - | - |
| 1777887005 | 14.44° C | 68% | 991.2 hPa | 0 mm | - | - | - |
* Rain latest hour (hover to see other rain measurements)
** Current wind speed in m/s (hover to see current wind gust speed)